Centennial, WY

2:39 AM MDT on June 03, 2015 (GMT -0600)
Aspen Country | | Change Station
CLOSE
Current Station
Personal Weather Station
Location: Centennial, WY
Elevation: 8050 ft
Nearby Weather Stations
Active Advisory: Flood Warning

Elev 8050 ft 41.29 °N, 106.15 °W | Updated 9 minutes ago

Clear
Clear
44.4 °F
Feels Like 44 °F
N
0.0
Wind Variable Wind from NW
Gusts 0.0 mph

Today
High -- | Low -- °F
--% Chance of Precip.
Yesterday
High -- | Low -- °F
Precip. -- in
5:32 AM 8:32 PM
Waxing Gibbous, 99% visible
Pressure 29.78 in
Visibility 10.0 miles
Clouds Clear
Windchill 44 °F
Dew Point 33 °F
Humidity 65%
Rainfall 0.00 in
Snow Depth Not available.
UV 0 out of 12
Pollen 8.80 out of 12
Air Quality Not available.
Flu Activity Sporadic
METAR KLAR 030753Z AUTO 00000KT 10SM CLR 07/02 A3007 RMK AO2 SLP082 T00670017

More Conditions Fewer Conditions

Pressure 29.78 in
Visibility 10.0 miles
Clouds Clear
Windchill 44 °F
Dew Point 33 °F
Humidity 65%
Rainfall 0.00 in
Snow Depth Not available.
UV 0 out of 12
Pollen 8.80 out of 12
Air Quality Not available.
Flu Activity Sporadic
METAR KLAR 030753Z AUTO 00000KT 10SM CLR 07/02 A3007 RMK AO2 SLP082 T00670017

More Conditions Fewer Conditions

10-Day Weather Forecast

×

Almanac

Astronomy

Jun. 03, 2015 Rise Set
Actual Time
Civil Twilight
Nautical Twilight
Astronomical Twilight
Moon
Length of Visible Light
Length of Day
Tomorrow will be .
, % of the Moon is Illuminated

Today's Extremes

State Highs State Lows

Community

WunderPhotos

Upload Photos

1,826,194 photos uploaded!

WunderBlogs® & News

Nearby

Air Quality

  Air Quality AQ Index Pollutant
Not available.

Snow Depth

Station Depth Elevation

Earthquake Activity

City Distance Mag. Time & Date
Minimum magnitude displayed is 2.5.

Coastal Water Temperatures

Place Temperature

Stations

Nearby Weather Stations

Station Location Temp. Windchill Dew Point Humidity Wind Precip. Elev Updated Type
                   
Flood Warning
Statement as of 8:33 PM MDT on June 02, 2015

* Flood Warning continues for
the Laramie river at Laramie
* the stage will rise above the flood stage of 8.0 feet at 12 PM
Friday.


Flood impacts and crest history information is displayed at:
http:///water.Weather.Gov/ahps2/index.Php?Wfo=cys&gage=llrw4

* impact... at 8.0 feet... flood stage. Access to chimney lamp Road
bridge may become impossible. Water begins encroaching Greenway at
intersection of park and Spruce streets. Houses next to Greenway
along right bank may have water over low lying areas.
* Flood history... this crest compares to a previous crest of 6.8 feet
on Jun 15 1957.


Lat... Lon 4142 10585 4142 10551 4128 10549 4119 10570
      4124 10577